sensor_id;sensor_type;location;lat;lon;timestamp;pressure;altitude;pressure_sealevel;temperature;humidity
67377;BME280;54261;46.086;6.588;2023-10-31T00:02:37;91516.44;;;9.77;50.12
67377;BME280;54261;46.086;6.588;2023-10-31T00:07:39;91515.31;;;10.28;48.86
67377;BME280;54261;46.086;6.588;2023-10-31T00:12:41;91506.25;;;10.61;47.23
67377;BME280;54261;46.086;6.588;2023-10-31T00:17:42;91501.31;;;10.63;47.03
67377;BME280;54261;46.086;6.588;2023-10-31T00:22:44;91502.47;;;10.90;46.45
67377;BME280;54261;46.086;6.588;2023-10-31T00:27:46;91513.16;;;11.03;45.50
67377;BME280;54261;46.086;6.588;2023-10-31T00:32:48;91516.19;;;11.01;45.43
67377;BME280;54261;46.086;6.588;2023-10-31T00:37:50;91504.97;;;10.71;45.18
67377;BME280;54261;46.086;6.588;2023-10-31T00:42:52;91509.47;;;10.38;45.72
67377;BME280;54261;46.086;6.588;2023-10-31T00:47:55;91508.25;;;10.64;45.79
67377;BME280;54261;46.086;6.588;2023-10-31T00:52:57;91521.44;;;10.69;44.81
67377;BME280;54261;46.086;6.588;2023-10-31T00:57:59;91526.41;;;10.55;44.87
67377;BME280;54261;46.086;6.588;2023-10-31T01:03:02;91533.38;;;10.43;44.64
67377;BME280;54261;46.086;6.588;2023-10-31T01:08:04;91534.09;;;10.56;44.32
67377;BME280;54261;46.086;6.588;2023-10-31T01:13:07;91527.63;;;10.57;43.89
67377;BME280;54261;46.086;6.588;2023-10-31T01:18:09;91532.84;;;10.25;44.17
67377;BME280;54261;46.086;6.588;2023-10-31T01:23:10;91541.81;;;10.04;44.52
67377;BME280;54261;46.086;6.588;2023-10-31T01:28:12;91526.13;;;9.32;45.89
67377;BME280;54261;46.086;6.588;2023-10-31T01:33:14;91541.47;;;9.56;45.72
67377;BME280;54261;46.086;6.588;2023-10-31T01:38:17;91543.09;;;9.48;45.89
67377;BME280;54261;46.086;6.588;2023-10-31T01:43:35;91544.66;;;9.62;45.61
67377;BME280;54261;46.086;6.588;2023-10-31T01:48:38;91567.59;;;9.72;45.73
67377;BME280;54261;46.086;6.588;2023-10-31T01:53:40;91575.41;;;9.89;45.23
67377;BME280;54261;46.086;6.588;2023-10-31T01:58:42;91589.41;;;10.08;44.57
67377;BME280;54261;46.086;6.588;2023-10-31T02:03:45;91597.63;;;10.02;44.66
67377;BME280;54261;46.086;6.588;2023-10-31T02:08:48;91589.69;;;9.81;45.57
67377;BME280;54261;46.086;6.588;2023-10-31T02:13:50;91617.75;;;10.09;45.20
67377;BME280;54261;46.086;6.588;2023-10-31T02:18:52;91612.72;;;10.07;45.19
67377;BME280;54261;46.086;6.588;2023-10-31T02:29:00;91625.25;;;10.15;44.99
67377;BME280;54261;46.086;6.588;2023-10-31T02:34:02;91617.84;;;10.00;44.96
67377;BME280;54261;46.086;6.588;2023-10-31T02:39:05;91617.19;;;10.15;45.32
67377;BME280;54261;46.086;6.588;2023-10-31T02:44:08;91612.28;;;10.17;44.54
67377;BME280;54261;46.086;6.588;2023-10-31T02:49:10;91615.31;;;10.03;44.88
67377;BME280;54261;46.086;6.588;2023-10-31T02:54:12;91603.13;;;10.06;44.79
67377;BME280;54261;46.086;6.588;2023-10-31T02:59:14;91601.06;;;9.90;44.05
67377;BME280;54261;46.086;6.588;2023-10-31T03:04:16;91597.72;;;9.56;44.99
67377;BME280;54261;46.086;6.588;2023-10-31T03:09:17;91599.69;;;9.47;44.92
67377;BME280;54261;46.086;6.588;2023-10-31T03:14:19;91594.63;;;9.33;45.38
67377;BME280;54261;46.086;6.588;2023-10-31T03:19:21;91587.75;;;9.11;45.95
67377;BME280;54261;46.086;6.588;2023-10-31T03:24:23;91592.53;;;8.62;47.31
67377;BME280;54261;46.086;6.588;2023-10-31T03:29:25;91588.78;;;8.97;46.83
67377;BME280;54261;46.086;6.588;2023-10-31T03:34:27;91574.28;;;8.98;46.79
67377;BME280;54261;46.086;6.588;2023-10-31T03:39:28;91569.88;;;9.36;46.48
67377;BME280;54261;46.086;6.588;2023-10-31T03:44:32;91564.78;;;9.68;46.05
67377;BME280;54261;46.086;6.588;2023-10-31T03:49:37;91553.50;;;9.75;45.14
67377;BME280;54261;46.086;6.588;2023-10-31T03:54:39;91569.34;;;9.80;45.50
67377;BME280;54261;46.086;6.588;2023-10-31T03:59:41;91570.59;;;9.83;45.03
67377;BME280;54261;46.086;6.588;2023-10-31T04:04:43;91575.41;;;10.02;44.97
67377;BME280;54261;46.086;6.588;2023-10-31T04:09:45;91587.69;;;9.90;44.54
67377;BME280;54261;46.086;6.588;2023-10-31T04:14:47;91595.50;;;9.83;44.87
67377;BME280;54261;46.086;6.588;2023-10-31T04:19:48;91620.72;;;9.82;44.64
67377;BME280;54261;46.086;6.588;2023-10-31T04:24:50;91595.16;;;9.26;45.47
67377;BME280;54261;46.086;6.588;2023-10-31T04:29:52;91614.22;;;9.58;45.40
67377;BME280;54261;46.086;6.588;2023-10-31T04:34:54;91628.25;;;9.43;45.96
67377;BME280;54261;46.086;6.588;2023-10-31T04:39:56;91606.69;;;9.39;45.84
67377;BME280;54261;46.086;6.588;2023-10-31T04:44:58;91639.78;;;9.22;45.99
67377;BME280;54261;46.086;6.588;2023-10-31T04:50:00;91639.72;;;9.10;46.30
67377;BME280;54261;46.086;6.588;2023-10-31T04:55:02;91648.97;;;9.33;46.33
67377;BME280;54261;46.086;6.588;2023-10-31T05:00:04;91648.75;;;9.39;46.18
67377;BME280;54261;46.086;6.588;2023-10-31T05:05:08;91646.75;;;9.35;46.42
67377;BME280;54261;46.086;6.588;2023-10-31T05:10:10;91617.19;;;9.44;45.45
67377;BME280;54261;46.086;6.588;2023-10-31T05:15:12;91646.41;;;9.83;45.52
67377;BME280;54261;46.086;6.588;2023-10-31T05:20:14;91652.38;;;9.55;45.64
67377;BME280;54261;46.086;6.588;2023-10-31T05:25:15;91659.44;;;9.72;45.74
67377;BME280;54261;46.086;6.588;2023-10-31T05:30:17;91662.69;;;9.78;45.96
67377;BME280;54261;46.086;6.588;2023-10-31T05:35:19;91668.41;;;9.76;45.68
67377;BME280;54261;46.086;6.588;2023-10-31T05:40:21;91678.41;;;9.67;45.38
67377;BME280;54261;46.086;6.588;2023-10-31T05:45:26;91681.00;;;9.42;45.16
67377;BME280;54261;46.086;6.588;2023-10-31T05:50:28;91683.44;;;8.92;46.45
67377;BME280;54261;46.086;6.588;2023-10-31T05:55:30;91688.16;;;9.38;45.60
67377;BME280;54261;46.086;6.588;2023-10-31T06:00:31;91675.56;;;9.17;47.65
67377;BME280;54261;46.086;6.588;2023-10-31T06:05:34;91673.16;;;9.58;45.86
67377;BME280;54261;46.086;6.588;2023-10-31T06:10:36;91673.31;;;9.87;46.01
67377;BME280;54261;46.086;6.588;2023-10-31T06:15:38;91676.75;;;9.75;45.45
67377;BME280;54261;46.086;6.588;2023-10-31T06:20:40;91689.75;;;9.52;45.33
67377;BME280;54261;46.086;6.588;2023-10-31T06:25:42;91648.47;;;8.98;45.86
67377;BME280;54261;46.086;6.588;2023-10-31T06:30:44;91687.97;;;9.22;46.02
67377;BME280;54261;46.086;6.588;2023-10-31T06:35:46;91693.31;;;9.22;45.71
67377;BME280;54261;46.086;6.588;2023-10-31T06:40:48;91695.09;;;9.18;46.12
67377;BME280;54261;46.086;6.588;2023-10-31T06:45:49;91698.78;;;8.83;46.37
67377;BME280;54261;46.086;6.588;2023-10-31T06:50:51;91696.66;;;9.19;46.26
67377;BME280;54261;46.086;6.588;2023-10-31T06:55:53;91706.38;;;9.24;45.39
67377;BME280;54261;46.086;6.588;2023-10-31T07:00:55;91718.88;;;8.89;46.15
67377;BME280;54261;46.086;6.588;2023-10-31T07:05:59;91713.78;;;8.97;46.48
67377;BME280;54261;46.086;6.588;2023-10-31T07:11:01;91747.19;;;9.20;46.16
67377;BME280;54261;46.086;6.588;2023-10-31T07:16:04;91754.72;;;8.97;47.02
67377;BME280;54261;46.086;6.588;2023-10-31T07:21:06;91750.00;;;9.24;46.88
67377;BME280;54261;46.086;6.588;2023-10-31T07:26:09;91745.03;;;9.56;46.14
67377;BME280;54261;46.086;6.588;2023-10-31T07:31:12;91732.69;;;7.75;48.96
67377;BME280;54261;46.086;6.588;2023-10-31T07:36:13;91750.28;;;8.41;48.17
67377;BME280;54261;46.086;6.588;2023-10-31T07:41:15;91743.81;;;8.81;47.83
67377;BME280;54261;46.086;6.588;2023-10-31T07:46:17;91750.31;;;9.44;46.41
67377;BME280;54261;46.086;6.588;2023-10-31T07:51:20;91754.00;;;8.88;46.61
67377;BME280;54261;46.086;6.588;2023-10-31T07:56:22;91763.50;;;9.06;46.89
67377;BME280;54261;46.086;6.588;2023-10-31T08:01:26;91770.94;;;9.01;46.16
67377;BME280;54261;46.086;6.588;2023-10-31T08:06:29;91789.13;;;9.38;46.37
67377;BME280;54261;46.086;6.588;2023-10-31T08:11:31;91803.88;;;9.44;45.65
67377;BME280;54261;46.086;6.588;2023-10-31T08:16:34;91710.53;;;7.92;47.11
67377;BME280;54261;46.086;6.588;2023-10-31T08:21:36;91818.63;;;9.50;46.13
67377;BME280;54261;46.086;6.588;2023-10-31T08:26:39;91827.38;;;10.02;45.66
67377;BME280;54261;46.086;6.588;2023-10-31T08:31:41;91827.53;;;10.39;45.82
67377;BME280;54261;46.086;6.588;2023-10-31T08:36:43;91824.38;;;10.50;45.21
67377;BME280;54261;46.086;6.588;2023-10-31T08:41:56;91822.13;;;10.27;45.00
67377;BME280;54261;46.086;6.588;2023-10-31T08:46:58;91824.78;;;9.93;44.78
67377;BME280;54261;46.086;6.588;2023-10-31T08:52:00;91829.59;;;10.00;44.96
67377;BME280;54261;46.086;6.588;2023-10-31T08:57:04;91839.88;;;9.98;45.00
67377;BME280;54261;46.086;6.588;2023-10-31T09:02:06;91831.50;;;9.78;44.86
67377;BME280;54261;46.086;6.588;2023-10-31T09:07:07;91844.88;;;10.21;45.06
67377;BME280;54261;46.086;6.588;2023-10-31T09:12:09;91850.84;;;10.39;45.19
67377;BME280;54261;46.086;6.588;2023-10-31T09:17:11;91862.97;;;9.39;46.06
67377;BME280;54261;46.086;6.588;2023-10-31T09:22:14;91874.06;;;9.80;45.88
67377;BME280;54261;46.086;6.588;2023-10-31T09:27:15;91888.31;;;10.14;45.28
67377;BME280;54261;46.086;6.588;2023-10-31T09:32:18;91875.03;;;10.17;44.76
67377;BME280;54261;46.086;6.588;2023-10-31T09:37:20;91895.66;;;10.04;45.53
67377;BME280;54261;46.086;6.588;2023-10-31T09:42:22;91874.34;;;9.35;45.78
67377;BME280;54261;46.086;6.588;2023-10-31T09:47:24;91889.16;;;8.94;46.96
67377;BME280;54261;46.086;6.588;2023-10-31T09:52:26;91898.69;;;9.73;44.73
67377;BME280;54261;46.086;6.588;2023-10-31T09:57:29;91898.50;;;9.78;45.38
67377;BME280;54261;46.086;6.588;2023-10-31T10:02:30;91916.75;;;10.06;45.19
67377;BME280;54261;46.086;6.588;2023-10-31T10:07:34;91935.38;;;10.45;44.56
67377;BME280;54261;46.086;6.588;2023-10-31T10:12:37;91925.72;;;10.10;44.42
67377;BME280;54261;46.086;6.588;2023-10-31T10:17:39;91928.44;;;9.80;45.95
67377;BME280;54261;46.086;6.588;2023-10-31T10:22:49;91926.69;;;9.84;45.94
67377;BME280;54261;46.086;6.588;2023-10-31T10:27:51;91888.19;;;9.08;46.67
67377;BME280;54261;46.086;6.588;2023-10-31T10:32:53;91912.25;;;9.16;47.14
67377;BME280;54261;46.086;6.588;2023-10-31T10:37:56;91925.50;;;9.94;47.01
67377;BME280;54261;46.086;6.588;2023-10-31T10:43:00;91916.16;;;10.00;45.62
67377;BME280;54261;46.086;6.588;2023-10-31T10:48:11;91949.25;;;9.14;45.41
67377;BME280;54261;46.086;6.588;2023-10-31T10:53:24;91954.88;;;7.77;50.08
67377;BME280;54261;46.086;6.588;2023-10-31T10:58:51;91922.75;;;6.84;49.86
67377;BME280;54261;46.086;6.588;2023-10-31T11:03:55;91930.06;;;5.64;51.17
67377;BME280;54261;46.086;6.588;2023-10-31T11:08:57;91964.91;;;6.13;51.88
67377;BME280;54261;46.086;6.588;2023-10-31T11:14:00;91964.16;;;6.13;52.88
67377;BME280;54261;46.086;6.588;2023-10-31T11:19:03;91958.28;;;5.23;54.38
67377;BME280;54261;46.086;6.588;2023-10-31T11:24:06;91977.03;;;7.19;52.02
67377;BME280;54261;46.086;6.588;2023-10-31T11:29:10;91986.53;;;8.36;49.84
67377;BME280;54261;46.086;6.588;2023-10-31T11:34:12;91972.78;;;8.73;48.27
67377;BME280;54261;46.086;6.588;2023-10-31T11:39:21;91986.91;;;7.19;51.75
67377;BME280;54261;46.086;6.588;2023-10-31T11:44:27;91973.28;;;7.20;51.07
67377;BME280;54261;46.086;6.588;2023-10-31T11:49:45;92009.34;;;7.58;50.80
67377;BME280;54261;46.086;6.588;2023-10-31T11:54:48;91971.91;;;8.07;48.65
67377;BME280;54261;46.086;6.588;2023-10-31T11:59:50;92031.34;;;8.66;48.54
67377;BME280;54261;46.086;6.588;2023-10-31T12:05:07;92027.31;;;9.25;48.46
67377;BME280;54261;46.086;6.588;2023-10-31T12:10:10;92038.88;;;9.17;48.07
67377;BME280;54261;46.086;6.588;2023-10-31T12:15:12;92046.13;;;9.94;47.05
67377;BME280;54261;46.086;6.588;2023-10-31T12:20:14;92044.31;;;9.38;46.86
67377;BME280;54261;46.086;6.588;2023-10-31T12:25:17;92052.91;;;9.91;47.21
67377;BME280;54261;46.086;6.588;2023-10-31T12:30:22;92050.00;;;7.46;51.00
67377;BME280;54261;46.086;6.588;2023-10-31T12:35:26;92084.69;;;8.36;50.29
67377;BME280;54261;46.086;6.588;2023-10-31T12:40:31;92044.41;;;8.32;49.68
67377;BME280;54261;46.086;6.588;2023-10-31T12:45:33;92091.44;;;9.13;48.54
67377;BME280;54261;46.086;6.588;2023-10-31T12:50:36;92077.91;;;9.27;47.85
67377;BME280;54261;46.086;6.588;2023-10-31T12:55:41;92107.59;;;9.60;46.28
67377;BME280;54261;46.086;6.588;2023-10-31T13:00:43;92090.44;;;7.71;47.81
67377;BME280;54261;46.086;6.588;2023-10-31T13:05:45;92095.53;;;8.40;48.21
67377;BME280;54261;46.086;6.588;2023-10-31T13:10:47;92094.75;;;7.81;48.40
67377;BME280;54261;46.086;6.588;2023-10-31T13:15:51;92091.84;;;7.28;52.84
67377;BME280;54261;46.086;6.588;2023-10-31T13:20:52;91982.44;;;7.46;51.46
67377;BME280;54261;46.086;6.588;2023-10-31T13:25:54;92112.53;;;8.44;51.24
67377;BME280;54261;46.086;6.588;2023-10-31T13:30:56;92078.88;;;9.04;49.10
67377;BME280;54261;46.086;6.588;2023-10-31T13:35:58;92118.03;;;9.35;49.10
67377;BME280;54261;46.086;6.588;2023-10-31T13:41:03;92098.81;;;9.81;47.66
67377;BME280;54261;46.086;6.588;2023-10-31T13:46:05;92141.00;;;9.54;48.07
67377;BME280;54261;46.086;6.588;2023-10-31T13:51:07;92146.09;;;9.86;47.62
67377;BME280;54261;46.086;6.588;2023-10-31T13:56:09;92158.31;;;9.66;47.65
67377;BME280;54261;46.086;6.588;2023-10-31T14:01:11;92175.44;;;9.82;48.01
67377;BME280;54261;46.086;6.588;2023-10-31T14:06:13;92182.59;;;10.17;47.01
67377;BME280;54261;46.086;6.588;2023-10-31T14:11:15;92181.94;;;10.29;47.53
67377;BME280;54261;46.086;6.588;2023-10-31T14:16:19;92173.13;;;9.54;46.61
67377;BME280;54261;46.086;6.588;2023-10-31T14:21:21;92184.19;;;9.53;48.09
67377;BME280;54261;46.086;6.588;2023-10-31T14:26:23;92204.69;;;10.14;47.12
67377;BME280;54261;46.086;6.588;2023-10-31T14:31:25;92203.00;;;9.91;47.42
67377;BME280;54261;46.086;6.588;2023-10-31T14:36:27;92202.16;;;10.17;46.80
67377;BME280;54261;46.086;6.588;2023-10-31T14:41:29;92200.41;;;10.22;46.32
67377;BME280;54261;46.086;6.588;2023-10-31T14:46:35;92182.03;;;10.41;46.33
67377;BME280;54261;46.086;6.588;2023-10-31T14:51:37;92237.09;;;10.39;46.21
67377;BME280;54261;46.086;6.588;2023-10-31T14:56:39;92244.84;;;10.40;46.23
67377;BME280;54261;46.086;6.588;2023-10-31T15:01:42;92233.09;;;10.54;45.65
67377;BME280;54261;46.086;6.588;2023-10-31T15:06:44;92194.78;;;10.14;45.97
67377;BME280;54261;46.086;6.588;2023-10-31T15:11:45;92235.78;;;10.06;45.96
67377;BME280;54261;46.086;6.588;2023-10-31T15:16:47;92227.75;;;9.97;46.93
67377;BME280;54261;46.086;6.588;2023-10-31T15:21:49;92237.44;;;9.54;47.41
67377;BME280;54261;46.086;6.588;2023-10-31T15:26:51;92240.81;;;10.55;46.45
67377;BME280;54261;46.086;6.588;2023-10-31T15:31:53;92256.19;;;9.19;47.14
67377;BME280;54261;46.086;6.588;2023-10-31T15:36:57;92269.06;;;9.96;46.82
67377;BME280;54261;46.086;6.588;2023-10-31T15:41:58;92277.16;;;10.53;46.03
67377;BME280;54261;46.086;6.588;2023-10-31T15:47:01;92236.25;;;9.99;46.05
67377;BME280;54261;46.086;6.588;2023-10-31T15:52:03;92277.75;;;9.75;46.24
67377;BME280;54261;46.086;6.588;2023-10-31T15:57:07;92289.56;;;9.13;47.56
67377;BME280;54261;46.086;6.588;2023-10-31T16:02:09;92297.78;;;9.60;46.71
67377;BME280;54261;46.086;6.588;2023-10-31T16:07:14;92265.03;;;9.46;47.50
67377;BME280;54261;46.086;6.588;2023-10-31T16:12:16;92314.03;;;9.82;47.33
67377;BME280;54261;46.086;6.588;2023-10-31T16:17:20;92311.19;;;9.78;47.13
67377;BME280;54261;46.086;6.588;2023-10-31T16:22:22;92309.09;;;10.10;46.36
67377;BME280;54261;46.086;6.588;2023-10-31T16:27:24;92314.19;;;9.76;46.03
67377;BME280;54261;46.086;6.588;2023-10-31T16:32:25;92314.44;;;9.13;47.47
67377;BME280;54261;46.086;6.588;2023-10-31T16:37:27;92318.25;;;9.39;47.36
67377;BME280;54261;46.086;6.588;2023-10-31T16:42:29;92279.97;;;9.56;47.26
67377;BME280;54261;46.086;6.588;2023-10-31T16:47:34;92289.13;;;9.46;46.60
67377;BME280;54261;46.086;6.588;2023-10-31T16:52:36;92302.66;;;9.41;46.91
67377;BME280;54261;46.086;6.588;2023-10-31T16:57:38;92341.25;;;9.31;46.52
67377;BME280;54261;46.086;6.588;2023-10-31T17:02:40;92302.28;;;8.58;47.20
67377;BME280;54261;46.086;6.588;2023-10-31T17:07:42;92349.94;;;9.37;46.82
67377;BME280;54261;46.086;6.588;2023-10-31T17:12:44;92344.56;;;9.37;46.09
67377;BME280;54261;46.086;6.588;2023-10-31T17:17:46;92336.84;;;8.86;46.69
67377;BME280;54261;46.086;6.588;2023-10-31T17:22:48;92357.78;;;9.24;46.44
67377;BME280;54261;46.086;6.588;2023-10-31T17:27:50;92379.28;;;9.59;46.34
67377;BME280;54261;46.086;6.588;2023-10-31T17:32:52;92368.56;;;9.68;45.40
67377;BME280;54261;46.086;6.588;2023-10-31T17:37:54;92378.00;;;9.57;45.79
67377;BME280;54261;46.086;6.588;2023-10-31T17:42:57;92378.91;;;9.26;46.41
67377;BME280;54261;46.086;6.588;2023-10-31T17:47:59;92379.09;;;9.38;46.55
67377;BME280;54261;46.086;6.588;2023-10-31T17:53:01;92377.28;;;8.75;47.20
67377;BME280;54261;46.086;6.588;2023-10-31T17:58:03;92390.41;;;8.54;47.94
67377;BME280;54261;46.086;6.588;2023-10-31T18:03:05;92369.94;;;9.30;46.53
67377;BME280;54261;46.086;6.588;2023-10-31T18:08:07;92384.22;;;9.17;46.49
67377;BME280;54261;46.086;6.588;2023-10-31T18:13:09;92330.69;;;8.76;46.71
67377;BME280;54261;46.086;6.588;2023-10-31T18:18:11;92389.94;;;8.92;45.85
67377;BME280;54261;46.086;6.588;2023-10-31T18:23:13;92382.66;;;9.16;45.83
67377;BME280;54261;46.086;6.588;2023-10-31T18:28:15;92389.25;;;9.18;45.84
67377;BME280;54261;46.086;6.588;2023-10-31T18:33:17;92395.16;;;8.98;45.94
67377;BME280;54261;46.086;6.588;2023-10-31T18:38:19;92393.63;;;8.42;46.38
67377;BME280;54261;46.086;6.588;2023-10-31T18:43:22;92366.28;;;8.86;45.83
67377;BME280;54261;46.086;6.588;2023-10-31T18:48:23;92370.06;;;6.83;50.16
67377;BME280;54261;46.086;6.588;2023-10-31T18:53:25;92375.81;;;5.19;54.34
67377;BME280;54261;46.086;6.588;2023-10-31T18:58:27;92365.81;;;5.88;54.69
67377;BME280;54261;46.086;6.588;2023-10-31T19:03:29;92363.31;;;7.28;50.28
67377;BME280;54261;46.086;6.588;2023-10-31T19:08:31;92371.69;;;7.86;50.15
67377;BME280;54261;46.086;6.588;2023-10-31T19:13:34;92368.50;;;7.98;49.34
67377;BME280;54261;46.086;6.588;2023-10-31T19:18:37;92361.88;;;8.18;48.45
67377;BME280;54261;46.086;6.588;2023-10-31T19:23:39;92351.47;;;8.16;48.02
67377;BME280;54261;46.086;6.588;2023-10-31T19:28:41;92362.28;;;8.34;47.09
67377;BME280;54261;46.086;6.588;2023-10-31T19:33:43;92340.66;;;8.21;47.19
67377;BME280;54261;46.086;6.588;2023-10-31T19:38:44;92349.03;;;7.83;46.99
67377;BME280;54261;46.086;6.588;2023-10-31T19:43:46;92340.25;;;8.05;47.69
67377;BME280;54261;46.086;6.588;2023-10-31T19:48:48;92353.97;;;7.90;47.92
67377;BME280;54261;46.086;6.588;2023-10-31T19:53:51;92353.34;;;6.63;49.75
67377;BME280;54261;46.086;6.588;2023-10-31T19:58:53;92344.81;;;7.45;49.65
67377;BME280;54261;46.086;6.588;2023-10-31T20:03:55;92356.72;;;7.62;48.49
67377;BME280;54261;46.086;6.588;2023-10-31T20:08:57;92355.56;;;7.91;48.07
67377;BME280;54261;46.086;6.588;2023-10-31T20:13:59;92357.41;;;8.36;47.10
67377;BME280;54261;46.086;6.588;2023-10-31T20:19:01;92349.94;;;7.78;47.14
67377;BME280;54261;46.086;6.588;2023-10-31T20:24:03;92355.06;;;8.12;47.36
67377;BME280;54261;46.086;6.588;2023-10-31T20:29:05;92343.22;;;7.81;48.06
67377;BME280;54261;46.086;6.588;2023-10-31T20:34:07;92348.34;;;7.77;47.58
67377;BME280;54261;46.086;6.588;2023-10-31T20:39:09;92343.16;;;7.21;48.24
67377;BME280;54261;46.086;6.588;2023-10-31T20:44:13;92338.81;;;7.62;47.95
67377;BME280;54261;46.086;6.588;2023-10-31T20:49:15;92343.56;;;7.88;47.56
67377;BME280;54261;46.086;6.588;2023-10-31T20:54:17;92351.00;;;7.91;47.03
67377;BME280;54261;46.086;6.588;2023-10-31T20:59:18;92336.13;;;7.62;47.11
67377;BME280;54261;46.086;6.588;2023-10-31T21:04:20;92323.16;;;7.70;47.54
67377;BME280;54261;46.086;6.588;2023-10-31T21:09:24;92319.84;;;7.87;47.22
67377;BME280;54261;46.086;6.588;2023-10-31T21:14:26;92281.75;;;7.81;46.40
67377;BME280;54261;46.086;6.588;2023-10-31T21:19:28;92323.31;;;8.10;46.47
67377;BME280;54261;46.086;6.588;2023-10-31T21:24:36;92300.88;;;7.74;47.02
67377;BME280;54261;46.086;6.588;2023-10-31T21:29:38;92307.56;;;7.63;47.10
67377;BME280;54261;46.086;6.588;2023-10-31T21:34:40;92301.72;;;7.61;47.64
67377;BME280;54261;46.086;6.588;2023-10-31T21:39:42;92294.25;;;7.49;48.00
67377;BME280;54261;46.086;6.588;2023-10-31T21:44:44;92259.78;;;7.02;48.37
67377;BME280;54261;46.086;6.588;2023-10-31T21:49:46;92290.00;;;7.48;47.62
67377;BME280;54261;46.086;6.588;2023-10-31T21:54:48;92271.66;;;6.67;49.86
67377;BME280;54261;46.086;6.588;2023-10-31T21:59:50;92273.06;;;7.52;48.27
67377;BME280;54261;46.086;6.588;2023-10-31T22:04:51;92269.31;;;7.54;47.73
67377;BME280;54261;46.086;6.588;2023-10-31T22:09:53;92268.16;;;7.91;46.96
67377;BME280;54261;46.086;6.588;2023-10-31T22:14:55;92266.03;;;8.02;46.53
67377;BME280;54261;46.086;6.588;2023-10-31T22:19:57;92267.91;;;7.79;46.64
67377;BME280;54261;46.086;6.588;2023-10-31T22:25:02;92266.41;;;7.87;46.49
67377;BME280;54261;46.086;6.588;2023-10-31T22:30:05;92238.56;;;7.88;45.85
67377;BME280;54261;46.086;6.588;2023-10-31T22:35:08;92263.09;;;7.67;46.49
67377;BME280;54261;46.086;6.588;2023-10-31T22:40:11;92266.16;;;7.51;46.89
67377;BME280;54261;46.086;6.588;2023-10-31T22:45:13;92219.19;;;7.50;46.37
67377;BME280;54261;46.086;6.588;2023-10-31T22:50:14;92244.41;;;7.44;47.24
67377;BME280;54261;46.086;6.588;2023-10-31T22:55:16;92239.78;;;7.13;47.68
67377;BME280;54261;46.086;6.588;2023-10-31T23:00:19;92235.13;;;6.82;47.52
67377;BME280;54261;46.086;6.588;2023-10-31T23:05:35;92229.50;;;6.84;46.97
67377;BME280;54261;46.086;6.588;2023-10-31T23:10:37;92234.94;;;6.36;49.16
67377;BME280;54261;46.086;6.588;2023-10-31T23:15:39;92227.72;;;7.16;47.76
67377;BME280;54261;46.086;6.588;2023-10-31T23:20:41;92227.53;;;6.33;49.73
67377;BME280;54261;46.086;6.588;2023-10-31T23:25:44;92221.09;;;6.62;49.08
67377;BME280;54261;46.086;6.588;2023-10-31T23:30:45;92209.34;;;6.35;50.04
67377;BME280;54261;46.086;6.588;2023-10-31T23:35:58;92210.59;;;6.94;48.13
67377;BME280;54261;46.086;6.588;2023-10-31T23:41:00;92206.19;;;7.12;47.41
67377;BME280;54261;46.086;6.588;2023-10-31T23:46:03;92161.50;;;6.30;48.66
67377;BME280;54261;46.086;6.588;2023-10-31T23:51:05;92211.72;;;7.16;47.21
67377;BME280;54261;46.086;6.588;2023-10-31T23:56:07;92212.03;;;6.21;49.66
